Avera, Georgia
Current Conditions -  °F | °C
As of 5:15 PM on Sunday 25 Jan 2015 (Local Time) from KOKZ Reporting Station
Clear Clear  
Wind Chill: 58°   Ceiling: Unl
Heat Index: 58°   Visibility: 10mi
Dew Point: 32°   Wind: 9mph
Humidity: 37%   Direction: 220°SW
Pressure: 29.83"   Gusts: NA
Location:  33.19°N, 82.53°W
Report Text: KOKZ 252215Z AUTO 22008KT 10SM CLR 15/00 A2983 RMK AO2 T01451001
Loading
Personal Weather Stations






























Interactive Weather Map New forecast layout! Learn more

10-Day Weather Forecast

Advertisements
Track Severe Weather on mobile